Detall de PIREP

Printer-friendly versionPDF version

[2011/06/20 12:12:00]
Flight IATA:CT3116
Pilot Number:026
Company ICAO:CAT
Aircraft Type:DC85/A
PAX:132
Departing Airport: LEBL
Destination Airport: LEZG
Alternate Airport:LEDA
Online: VATSIM
Route:LOBAR
Flight Level:F170
No Slew and time accel
No pause
Crash detect
Detect pilot in Cockpit between each 30 and 45 minutes
12:12 Zero fuel Weight: 178561 Lbs, Fuel Weight: 19986 Lbs
12:12 VATSIM:LEBL 191200Z 18015KT 150V210 9999 FEW020 22/16 Q1020 NOSIG
12:12 VATSIM:LEZG 191200Z 30006KT 230V010 CAVOK 24/07 Q1020
12:12 VOICE CATALONIAN / INTERHUB ROUTE CT3116
12:21 Parking Brakes off
12:30 Take-off
12:30 Take off Weight: 197218 Lbs
12:30 Wind: 191º @ 015 Knots Heading: 243º
12:30 POS N41º 17´ 06´´ E002º 04´ 58´´
12:30 Flaps:2 at 182 Knots
12:30 Gear Up: 184 Knots
12:31 Flaps:1 at 224 Knots
12:32 Flaps:0 at 186 Knots
12:37 TOC
12:37 Fuel Weight: 16200 Lb
12:45 Wind:224º@008 Knots Heading: 305º Ground Speed: 408 Knots Altitude 17201 ft
12:47 TOD
12:47 Fuel Weight: 13849 Lb
13:00 Wind:303º@005 Knots Heading: 153º Ground Speed: 244 Knots Altitude 3605 ft
13:03 Gear Down: 206 Knots
13:03 Flaps:1 at 203 Knots
13:04 Flaps:2 at 155 Knots
13:05 Flaps:3 at 157 Knots
13:06 Flaps:4 at 149 Knots
13:06 Flaps:5 at 140 Knots
13:06 TouchDown:Rate -234 ft/min Speed: 127 Knots
13:07 VATSIM:LEZG 191300Z 33005KT 270V020 CAVOK 26/05 Q1020
13:07 Land
13:07 Wind:303º@005 Knots
13:07 Heading: 299º
13:07 Flight Duration: 00:37
13:07 Landing Weight: 190605 Lbs
13:07 POS N41º 39´ 49´´ W001º 01´ 39´´
13:13 Parking brakes on
13:13 Block to Block Duration: 00:52
13:13 Final Fuel: 11463 Lbls
13:13 Spent Fuel: 8522 Lbls
13:13 Flight Length: 192 NM
13:13 TOD Land Length: 87 NM

Exportar CSV

Powered by Drupal - Modified by Danger4k